sensor_id;sensor_type;location;lat;lon;timestamp;P1;durP1;ratioP1;P2;durP2;ratioP2
74553;SDS011;63114;59.956;30.214;2022-09-24T00:01:36;3.78;;;2.60;;
74553;SDS011;63114;59.956;30.214;2022-09-24T00:04:07;6.28;;;2.75;;
74553;SDS011;63114;59.956;30.214;2022-09-24T00:06:42;4.88;;;2.83;;
74553;SDS011;63114;59.956;30.214;2022-09-24T00:09:11;3.75;;;2.53;;
74553;SDS011;63114;59.956;30.214;2022-09-24T00:11:37;5.28;;;2.33;;
74553;SDS011;63114;59.956;30.214;2022-09-24T00:14:04;6.25;;;2.65;;
74553;SDS011;63114;59.956;30.214;2022-09-24T00:16:31;4.65;;;2.50;;
74553;SDS011;63114;59.956;30.214;2022-09-24T00:18:59;5.30;;;2.42;;
74553;SDS011;63114;59.956;30.214;2022-09-24T00:21:27;5.35;;;3.03;;
74553;SDS011;63114;59.956;30.214;2022-09-24T00:23:55;5.32;;;2.92;;
74553;SDS011;63114;59.956;30.214;2022-09-24T00:26:22;4.43;;;2.80;;
74553;SDS011;63114;59.956;30.214;2022-09-24T00:29:07;5.83;;;3.20;;
74553;SDS011;63114;59.956;30.214;2022-09-24T00:31:34;5.28;;;2.92;;
74553;SDS011;63114;59.956;30.214;2022-09-24T00:34:02;5.75;;;2.83;;
74553;SDS011;63114;59.956;30.214;2022-09-24T00:36:28;4.15;;;2.55;;
74553;SDS011;63114;59.956;30.214;2022-09-24T00:38:55;4.47;;;2.78;;
74553;SDS011;63114;59.956;30.214;2022-09-24T00:41:23;6.47;;;2.95;;
74553;SDS011;63114;59.956;30.214;2022-09-24T00:44:41;4.13;;;2.80;;
74553;SDS011;63114;59.956;30.214;2022-09-24T00:47:00;4.88;;;2.92;;
74553;SDS011;63114;59.956;30.214;2022-09-24T00:49:26;5.72;;;3.20;;
74553;SDS011;63114;59.956;30.214;2022-09-24T00:51:52;4.88;;;2.63;;
74553;SDS011;63114;59.956;30.214;2022-09-24T00:54:18;5.15;;;2.85;;
74553;SDS011;63114;59.956;30.214;2022-09-24T00:56:47;4.18;;;2.63;;
74553;SDS011;63114;59.956;30.214;2022-09-24T00:59:14;4.90;;;2.88;;
74553;SDS011;63114;59.956;30.214;2022-09-24T01:01:44;5.13;;;2.70;;
74553;SDS011;63114;59.956;30.214;2022-09-24T01:04:11;3.63;;;2.60;;
74553;SDS011;63114;59.956;30.214;2022-09-24T01:06:39;3.90;;;2.92;;
74553;SDS011;63114;59.956;30.214;2022-09-24T01:09:08;5.13;;;2.90;;
74553;SDS011;63114;59.956;30.214;2022-09-24T01:17:32;4.80;;;3.08;;
74553;SDS011;63114;59.956;30.214;2022-09-24T01:31:14;5.00;;;2.83;;
74553;SDS011;63114;59.956;30.214;2022-09-24T01:33:43;6.03;;;3.33;;
74553;SDS011;63114;59.956;30.214;2022-09-24T01:36:10;4.88;;;2.88;;
74553;SDS011;63114;59.956;30.214;2022-09-24T01:38:40;6.25;;;3.05;;
74553;SDS011;63114;59.956;30.214;2022-09-24T01:41:09;5.60;;;3.08;;
74553;SDS011;63114;59.956;30.214;2022-09-24T01:43:36;6.15;;;3.03;;
74553;SDS011;63114;59.956;30.214;2022-09-24T01:46:04;5.22;;;3.30;;
74553;SDS011;63114;59.956;30.214;2022-09-24T01:48:40;4.38;;;3.08;;
74553;SDS011;63114;59.956;30.214;2022-09-24T01:53:57;5.55;;;3.05;;
74553;SDS011;63114;59.956;30.214;2022-09-24T01:56:30;6.15;;;2.80;;
74553;SDS011;63114;59.956;30.214;2022-09-24T02:02:26;4.95;;;2.50;;
74553;SDS011;63114;59.956;30.214;2022-09-24T02:05:23;7.05;;;2.50;;
74553;SDS011;63114;59.956;30.214;2022-09-24T02:08:17;5.57;;;2.63;;
74553;SDS011;63114;59.956;30.214;2022-09-24T02:13:23;3.60;;;2.47;;
74553;SDS011;63114;59.956;30.214;2022-09-24T02:15:51;4.70;;;2.80;;
74553;SDS011;63114;59.956;30.214;2022-09-24T02:18:21;4.60;;;2.47;;
74553;SDS011;63114;59.956;30.214;2022-09-24T02:20:49;4.05;;;2.28;;
74553;SDS011;63114;59.956;30.214;2022-09-24T02:23:15;3.45;;;2.17;;
74553;SDS011;63114;59.956;30.214;2022-09-24T02:25:43;4.20;;;2.45;;
74553;SDS011;63114;59.956;30.214;2022-09-24T02:28:15;4.10;;;2.65;;
74553;SDS011;63114;59.956;30.214;2022-09-24T02:33:43;4.75;;;2.13;;
74553;SDS011;63114;59.956;30.214;2022-09-24T02:36:28;4.72;;;2.08;;
74553;SDS011;63114;59.956;30.214;2022-09-24T02:38:54;6.15;;;2.40;;
74553;SDS011;63114;59.956;30.214;2022-09-24T02:41:20;5.97;;;2.50;;
74553;SDS011;63114;59.956;30.214;2022-09-24T02:43:48;5.70;;;1.80;;
74553;SDS011;63114;59.956;30.214;2022-09-24T02:46:14;4.88;;;2.28;;
74553;SDS011;63114;59.956;30.214;2022-09-24T02:48:40;2.65;;;1.90;;
74553;SDS011;63114;59.956;30.214;2022-09-24T02:51:06;4.90;;;2.00;;
74553;SDS011;63114;59.956;30.214;2022-09-24T02:53:32;4.18;;;1.83;;
74553;SDS011;63114;59.956;30.214;2022-09-24T02:55:58;3.38;;;1.52;;
74553;SDS011;63114;59.956;30.214;2022-09-24T02:58:27;2.95;;;1.60;;
74553;SDS011;63114;59.956;30.214;2022-09-24T03:00:53;4.93;;;1.60;;
74553;SDS011;63114;59.956;30.214;2022-09-24T03:03:22;2.22;;;1.60;;
74553;SDS011;63114;59.956;30.214;2022-09-24T03:05:49;4.28;;;1.50;;
74553;SDS011;63114;59.956;30.214;2022-09-24T03:08:17;2.53;;;1.60;;
74553;SDS011;63114;59.956;30.214;2022-09-24T03:10:44;3.20;;;1.65;;
74553;SDS011;63114;59.956;30.214;2022-09-24T03:13:11;2.22;;;1.60;;
74553;SDS011;63114;59.956;30.214;2022-09-24T03:15:37;3.05;;;1.70;;
74553;SDS011;63114;59.956;30.214;2022-09-24T03:18:03;3.05;;;1.85;;
74553;SDS011;63114;59.956;30.214;2022-09-24T03:20:30;3.47;;;1.60;;
74553;SDS011;63114;59.956;30.214;2022-09-24T03:22:58;3.15;;;1.88;;
74553;SDS011;63114;59.956;30.214;2022-09-24T03:25:26;4.15;;;1.80;;
74553;SDS011;63114;59.956;30.214;2022-09-24T03:27:52;3.00;;;1.73;;
74553;SDS011;63114;59.956;30.214;2022-09-24T03:30:17;3.97;;;1.92;;
74553;SDS011;63114;59.956;30.214;2022-09-24T03:33:02;5.05;;;2.13;;
74553;SDS011;63114;59.956;30.214;2022-09-24T03:35:27;2.60;;;1.83;;
74553;SDS011;63114;59.956;30.214;2022-09-24T03:37:53;3.17;;;1.85;;
74553;SDS011;63114;59.956;30.214;2022-09-24T03:40:19;3.65;;;1.92;;
74553;SDS011;63114;59.956;30.214;2022-09-24T03:42:44;2.95;;;2.22;;
74553;SDS011;63114;59.956;30.214;2022-09-24T03:45:10;4.43;;;1.75;;
74553;SDS011;63114;59.956;30.214;2022-09-24T03:47:36;3.75;;;1.83;;
74553;SDS011;63114;59.956;30.214;2022-09-24T03:50:02;2.85;;;1.73;;
74553;SDS011;63114;59.956;30.214;2022-09-24T03:52:28;5.15;;;2.10;;
74553;SDS011;63114;59.956;30.214;2022-09-24T03:54:54;4.38;;;1.83;;
74553;SDS011;63114;59.956;30.214;2022-09-24T03:57:20;2.42;;;1.50;;
74553;SDS011;63114;59.956;30.214;2022-09-24T03:59:46;4.25;;;2.17;;
74553;SDS011;63114;59.956;30.214;2022-09-24T04:02:12;2.75;;;1.90;;
74553;SDS011;63114;59.956;30.214;2022-09-24T04:04:38;3.20;;;1.85;;
74553;SDS011;63114;59.956;30.214;2022-09-24T04:07:04;3.22;;;1.90;;
74553;SDS011;63114;59.956;30.214;2022-09-24T04:09:30;2.90;;;1.90;;
74553;SDS011;63114;59.956;30.214;2022-09-24T04:11:56;3.08;;;1.70;;
74553;SDS011;63114;59.956;30.214;2022-09-24T04:14:21;4.25;;;1.90;;
74553;SDS011;63114;59.956;30.214;2022-09-24T04:16:47;3.03;;;1.90;;
74553;SDS011;63114;59.956;30.214;2022-09-24T04:19:13;3.65;;;2.00;;
74553;SDS011;63114;59.956;30.214;2022-09-24T04:21:43;3.72;;;2.25;;
74553;SDS011;63114;59.956;30.214;2022-09-24T04:24:12;3.08;;;1.70;;
74553;SDS011;63114;59.956;30.214;2022-09-24T04:26:38;3.72;;;1.95;;
74553;SDS011;63114;59.956;30.214;2022-09-24T04:29:03;2.72;;;2.05;;
74553;SDS011;63114;59.956;30.214;2022-09-24T04:31:33;4.20;;;1.70;;
74553;SDS011;63114;59.956;30.214;2022-09-24T04:34:02;3.70;;;2.45;;
74553;SDS011;63114;59.956;30.214;2022-09-24T04:36:28;2.85;;;2.08;;
74553;SDS011;63114;59.956;30.214;2022-09-24T04:38:53;4.50;;;2.88;;
74553;SDS011;63114;59.956;30.214;2022-09-24T04:41:19;5.35;;;2.10;;
74553;SDS011;63114;59.956;30.214;2022-09-24T04:43:45;3.42;;;2.10;;
74553;SDS011;63114;59.956;30.214;2022-09-24T04:46:11;5.78;;;2.38;;
74553;SDS011;63114;59.956;30.214;2022-09-24T04:48:37;6.25;;;2.45;;
74553;SDS011;63114;59.956;30.214;2022-09-24T04:51:06;4.55;;;1.98;;
74553;SDS011;63114;59.956;30.214;2022-09-24T04:53:33;5.05;;;2.40;;
74553;SDS011;63114;59.956;30.214;2022-09-24T04:56:00;6.07;;;2.25;;
74553;SDS011;63114;59.956;30.214;2022-09-24T04:58:26;6.68;;;2.15;;
74553;SDS011;63114;59.956;30.214;2022-09-24T05:00:53;3.80;;;1.90;;
74553;SDS011;63114;59.956;30.214;2022-09-24T05:06:09;4.47;;;1.90;;
74553;SDS011;63114;59.956;30.214;2022-09-24T05:08:35;4.57;;;1.90;;
74553;SDS011;63114;59.956;30.214;2022-09-24T05:11:02;5.13;;;1.90;;
74553;SDS011;63114;59.956;30.214;2022-09-24T05:13:31;3.33;;;1.95;;
74553;SDS011;63114;59.956;30.214;2022-09-24T05:15:57;3.72;;;1.85;;
74553;SDS011;63114;59.956;30.214;2022-09-24T05:18:25;3.00;;;1.67;;
74553;SDS011;63114;59.956;30.214;2022-09-24T05:20:53;2.97;;;1.75;;
74553;SDS011;63114;59.956;30.214;2022-09-24T05:23:22;2.80;;;1.88;;
74553;SDS011;63114;59.956;30.214;2022-09-24T05:25:48;3.55;;;1.65;;
74553;SDS011;63114;59.956;30.214;2022-09-24T05:28:32;5.13;;;1.77;;
74553;SDS011;63114;59.956;30.214;2022-09-24T05:30:58;3.20;;;1.83;;
74553;SDS011;63114;59.956;30.214;2022-09-24T05:33:24;3.42;;;1.80;;
74553;SDS011;63114;59.956;30.214;2022-09-24T05:35:54;3.90;;;1.83;;
74553;SDS011;63114;59.956;30.214;2022-09-24T05:38:24;3.20;;;2.13;;
74553;SDS011;63114;59.956;30.214;2022-09-24T05:40:50;3.80;;;1.67;;
74553;SDS011;63114;59.956;30.214;2022-09-24T05:43:16;5.97;;;1.80;;
74553;SDS011;63114;59.956;30.214;2022-09-24T05:45:44;6.03;;;2.00;;
74553;SDS011;63114;59.956;30.214;2022-09-24T05:48:10;6.15;;;1.60;;
74553;SDS011;63114;59.956;30.214;2022-09-24T05:50:36;3.97;;;1.70;;
74553;SDS011;63114;59.956;30.214;2022-09-24T05:53:11;8.07;;;2.25;;
74553;SDS011;63114;59.956;30.214;2022-09-24T05:58:29;4.35;;;1.88;;
74553;SDS011;63114;59.956;30.214;2022-09-24T06:00:57;5.20;;;1.55;;
74553;SDS011;63114;59.956;30.214;2022-09-24T06:03:24;5.35;;;1.92;;
74553;SDS011;63114;59.956;30.214;2022-09-24T06:08:40;4.95;;;1.63;;
74553;SDS011;63114;59.956;30.214;2022-09-24T06:11:06;5.45;;;1.95;;
74553;SDS011;63114;59.956;30.214;2022-09-24T06:13:32;4.22;;;1.60;;
74553;SDS011;63114;59.956;30.214;2022-09-24T06:16:01;4.15;;;1.77;;
74553;SDS011;63114;59.956;30.214;2022-09-24T06:18:28;3.28;;;1.52;;
74553;SDS011;63114;59.956;30.214;2022-09-24T06:20:54;3.03;;;1.70;;
74553;SDS011;63114;59.956;30.214;2022-09-24T06:23:20;2.42;;;1.42;;
74553;SDS011;63114;59.956;30.214;2022-09-24T06:25:49;5.07;;;1.55;;
74553;SDS011;63114;59.956;30.214;2022-09-24T06:28:16;3.15;;;1.40;;
74553;SDS011;63114;59.956;30.214;2022-09-24T06:30:45;3.00;;;1.50;;
74553;SDS011;63114;59.956;30.214;2022-09-24T06:33:11;2.53;;;1.45;;
74553;SDS011;63114;59.956;30.214;2022-09-24T06:35:41;3.55;;;1.40;;
74553;SDS011;63114;59.956;30.214;2022-09-24T06:38:12;2.42;;;1.38;;
74553;SDS011;63114;59.956;30.214;2022-09-24T06:40:40;3.20;;;1.35;;
74553;SDS011;63114;59.956;30.214;2022-09-24T06:43:06;3.08;;;1.70;;
74553;SDS011;63114;59.956;30.214;2022-09-24T06:45:33;2.50;;;1.45;;
74553;SDS011;63114;59.956;30.214;2022-09-24T06:48:00;6.55;;;1.65;;
74553;SDS011;63114;59.956;30.214;2022-09-24T06:50:28;4.95;;;1.70;;
74553;SDS011;63114;59.956;30.214;2022-09-24T06:52:58;4.07;;;1.45;;
74553;SDS011;63114;59.956;30.214;2022-09-24T06:55:24;4.50;;;1.42;;
74553;SDS011;63114;59.956;30.214;2022-09-24T06:58:00;4.72;;;1.52;;
74553;SDS011;63114;59.956;30.214;2022-09-24T07:00:27;4.50;;;1.80;;
74553;SDS011;63114;59.956;30.214;2022-09-24T07:02:52;3.22;;;1.40;;
74553;SDS011;63114;59.956;30.214;2022-09-24T07:05:18;5.32;;;1.38;;
74553;SDS011;63114;59.956;30.214;2022-09-24T07:08:09;1.88;;;1.30;;
74553;SDS011;63114;59.956;30.214;2022-09-24T07:10:35;2.10;;;1.40;;
74553;SDS011;63114;59.956;30.214;2022-09-24T07:13:02;3.08;;;1.25;;
74553;SDS011;63114;59.956;30.214;2022-09-24T07:15:27;3.33;;;1.35;;
74553;SDS011;63114;59.956;30.214;2022-09-24T07:17:54;4.40;;;1.50;;
74553;SDS011;63114;59.956;30.214;2022-09-24T07:20:23;4.38;;;1.30;;
74553;SDS011;63114;59.956;30.214;2022-09-24T07:22:52;3.10;;;1.20;;
74553;SDS011;63114;59.956;30.214;2022-09-24T07:25:18;3.08;;;1.20;;
74553;SDS011;63114;59.956;30.214;2022-09-24T07:27:44;2.97;;;1.40;;
74553;SDS011;63114;59.956;30.214;2022-09-24T07:30:13;3.30;;;1.15;;
74553;SDS011;63114;59.956;30.214;2022-09-24T07:32:39;6.60;;;2.42;;
74553;SDS011;63114;59.956;30.214;2022-09-24T07:35:05;2.63;;;1.17;;
74553;SDS011;63114;59.956;30.214;2022-09-24T07:37:31;3.53;;;1.20;;
74553;SDS011;63114;59.956;30.214;2022-09-24T07:39:58;3.80;;;1.13;;
74553;SDS011;63114;59.956;30.214;2022-09-24T07:42:24;3.22;;;1.30;;
74553;SDS011;63114;59.956;30.214;2022-09-24T07:44:50;3.28;;;1.00;;
74553;SDS011;63114;59.956;30.214;2022-09-24T07:47:16;6.15;;;1.13;;
74553;SDS011;63114;59.956;30.214;2022-09-24T07:49:42;3.35;;;0.90;;
74553;SDS011;63114;59.956;30.214;2022-09-24T07:52:09;2.88;;;1.00;;
74553;SDS011;63114;59.956;30.214;2022-09-24T07:54:35;3.67;;;1.10;;
74553;SDS011;63114;59.956;30.214;2022-09-24T07:57:01;2.15;;;1.10;;
74553;SDS011;63114;59.956;30.214;2022-09-24T07:59:27;1.50;;;0.80;;
74553;SDS011;63114;59.956;30.214;2022-09-24T08:01:54;1.88;;;0.80;;
74553;SDS011;63114;59.956;30.214;2022-09-24T08:04:46;1.80;;;0.90;;
74553;SDS011;63114;59.956;30.214;2022-09-24T08:07:15;2.75;;;0.90;;
74553;SDS011;63114;59.956;30.214;2022-09-24T08:09:50;1.97;;;0.93;;
74553;SDS011;63114;59.956;30.214;2022-09-24T08:12:17;2.05;;;1.00;;
74553;SDS011;63114;59.956;30.214;2022-09-24T08:14:44;1.58;;;1.02;;
74553;SDS011;63114;59.956;30.214;2022-09-24T08:17:12;2.70;;;1.33;;
74553;SDS011;63114;59.956;30.214;2022-09-24T08:19:38;2.70;;;0.90;;
74553;SDS011;63114;59.956;30.214;2022-09-24T08:22:07;3.75;;;1.10;;
74553;SDS011;63114;59.956;30.214;2022-09-24T08:24:33;3.95;;;1.08;;
74553;SDS011;63114;59.956;30.214;2022-09-24T08:26:59;1.85;;;1.00;;
74553;SDS011;63114;59.956;30.214;2022-09-24T08:29:25;3.33;;;0.90;;
74553;SDS011;63114;59.956;30.214;2022-09-24T08:31:50;2.25;;;1.40;;
74553;SDS011;63114;59.956;30.214;2022-09-24T08:34:17;2.42;;;1.00;;
74553;SDS011;63114;59.956;30.214;2022-09-24T08:36:42;1.92;;;0.90;;
74553;SDS011;63114;59.956;30.214;2022-09-24T08:39:08;5.20;;;0.90;;
74553;SDS011;63114;59.956;30.214;2022-09-24T08:44:34;2.95;;;1.05;;
74553;SDS011;63114;59.956;30.214;2022-09-24T08:47:45;3.17;;;1.20;;
74553;SDS011;63114;59.956;30.214;2022-09-24T08:50:24;4.07;;;1.30;;
74553;SDS011;63114;59.956;30.214;2022-09-24T08:55:33;2.13;;;1.20;;
74553;SDS011;63114;59.956;30.214;2022-09-24T08:58:43;1.85;;;0.90;;
74553;SDS011;63114;59.956;30.214;2022-09-24T09:11:37;2.90;;;1.20;;
74553;SDS011;63114;59.956;30.214;2022-09-24T09:14:16;3.00;;;1.10;;
74553;SDS011;63114;59.956;30.214;2022-09-24T09:16:51;4.65;;;1.30;;
74553;SDS011;63114;59.956;30.214;2022-09-24T09:19:20;3.88;;;1.27;;
74553;SDS011;63114;59.956;30.214;2022-09-24T09:21:51;3.38;;;1.77;;
74553;SDS011;63114;59.956;30.214;2022-09-24T09:24:21;2.92;;;1.17;;
74553;SDS011;63114;59.956;30.214;2022-09-24T09:27:22;3.53;;;1.10;;
74553;SDS011;63114;59.956;30.214;2022-09-24T09:29:50;2.83;;;1.25;;
74553;SDS011;63114;59.956;30.214;2022-09-24T09:32:22;2.60;;;1.00;;
74553;SDS011;63114;59.956;30.214;2022-09-24T09:35:01;2.03;;;1.17;;
74553;SDS011;63114;59.956;30.214;2022-09-24T09:43:29;2.58;;;1.30;;
74553;SDS011;63114;59.956;30.214;2022-09-24T09:46:17;3.70;;;0.90;;
74553;SDS011;63114;59.956;30.214;2022-09-24T09:48:51;4.72;;;1.08;;
74553;SDS011;63114;59.956;30.214;2022-09-24T09:51:21;4.80;;;1.00;;
74553;SDS011;63114;59.956;30.214;2022-09-24T09:53:57;3.03;;;1.00;;
74553;SDS011;63114;59.956;30.214;2022-09-24T09:56:25;1.73;;;0.90;;
74553;SDS011;63114;59.956;30.214;2022-09-24T09:59:28;3.15;;;1.38;;
74553;SDS011;63114;59.956;30.214;2022-09-24T10:01:48;3.72;;;1.13;;
74553;SDS011;63114;59.956;30.214;2022-09-24T10:04:25;2.42;;;0.90;;
74553;SDS011;63114;59.956;30.214;2022-09-24T10:07:08;3.40;;;1.10;;
74553;SDS011;63114;59.956;30.214;2022-09-24T10:09:34;3.28;;;0.93;;
74553;SDS011;63114;59.956;30.214;2022-09-24T10:12:14;3.92;;;1.10;;
74553;SDS011;63114;59.956;30.214;2022-09-24T10:17:50;1.88;;;1.08;;
74553;SDS011;63114;59.956;30.214;2022-09-24T10:20:21;3.90;;;1.08;;
74553;SDS011;63114;59.956;30.214;2022-09-24T10:22:55;1.80;;;1.05;;
74553;SDS011;63114;59.956;30.214;2022-09-24T10:25:27;3.05;;;1.10;;
74553;SDS011;63114;59.956;30.214;2022-09-24T10:27:56;6.97;;;1.10;;
74553;SDS011;63114;59.956;30.214;2022-09-24T10:30:49;2.15;;;1.10;;
74553;SDS011;63114;59.956;30.214;2022-09-24T10:33:43;3.10;;;1.20;;
74553;SDS011;63114;59.956;30.214;2022-09-24T10:36:14;2.47;;;0.90;;
74553;SDS011;63114;59.956;30.214;2022-09-24T10:38:44;1.95;;;1.10;;
74553;SDS011;63114;59.956;30.214;2022-09-24T10:41:23;2.28;;;0.90;;
74553;SDS011;63114;59.956;30.214;2022-09-24T10:43:53;2.95;;;1.00;;
74553;SDS011;63114;59.956;30.214;2022-09-24T10:53:59;2.63;;;1.25;;
74553;SDS011;63114;59.956;30.214;2022-09-24T10:56:38;2.08;;;1.17;;
74553;SDS011;63114;59.956;30.214;2022-09-24T11:01:47;4.10;;;1.00;;
74553;SDS011;63114;59.956;30.214;2022-09-24T11:04:43;2.22;;;1.20;;
74553;SDS011;63114;59.956;30.214;2022-09-24T12:00:53;3.33;;;1.00;;
74553;SDS011;63114;59.956;30.214;2022-09-24T12:03:21;2.72;;;0.90;;
74553;SDS011;63114;59.956;30.214;2022-09-24T12:05:55;2.78;;;0.90;;
74553;SDS011;63114;59.956;30.214;2022-09-24T12:08:38;3.17;;;1.00;;
74553;SDS011;63114;59.956;30.214;2022-09-24T12:11:19;1.77;;;0.88;;
74553;SDS011;63114;59.956;30.214;2022-09-24T12:13:51;3.20;;;1.00;;
74553;SDS011;63114;59.956;30.214;2022-09-24T12:16:27;2.65;;;1.00;;
74553;SDS011;63114;59.956;30.214;2022-09-24T12:19:00;1.48;;;0.88;;
74553;SDS011;63114;59.956;30.214;2022-09-24T12:21:33;1.98;;;0.90;;
74553;SDS011;63114;59.956;30.214;2022-09-24T12:26:58;2.53;;;1.00;;
74553;SDS011;63114;59.956;30.214;2022-09-24T12:46:53;4.15;;;1.08;;
74553;SDS011;63114;59.956;30.214;2022-09-24T12:52:35;11.30;;;1.10;;
74553;SDS011;63114;59.956;30.214;2022-09-24T12:54:44;8.88;;;1.00;;
74553;SDS011;63114;59.956;30.214;2022-09-24T12:57:20;3.70;;;0.90;;
74553;SDS011;63114;59.956;30.214;2022-09-24T12:59:52;3.88;;;1.10;;
74553;SDS011;63114;59.956;30.214;2022-09-24T13:02:25;2.45;;;1.05;;
74553;SDS011;63114;59.956;30.214;2022-09-24T13:07:30;1.98;;;1.23;;
74553;SDS011;63114;59.956;30.214;2022-09-24T13:09:56;3.17;;;1.00;;
74553;SDS011;63114;59.956;30.214;2022-09-24T13:12:28;3.42;;;1.00;;
74553;SDS011;63114;59.956;30.214;2022-09-24T13:15:01;4.03;;;1.10;;
74553;SDS011;63114;59.956;30.214;2022-09-24T13:17:33;3.05;;;1.20;;
74553;SDS011;63114;59.956;30.214;2022-09-24T13:20:04;6.97;;;1.05;;
74553;SDS011;63114;59.956;30.214;2022-09-24T13:22:32;8.30;;;1.20;;
74553;SDS011;63114;59.956;30.214;2022-09-24T13:32:36;1.95;;;1.10;;
74553;SDS011;63114;59.956;30.214;2022-09-24T13:35:10;2.67;;;1.10;;
74553;SDS011;63114;59.956;30.214;2022-09-24T13:38:11;3.20;;;1.20;;
74553;SDS011;63114;59.956;30.214;2022-09-24T13:40:44;2.95;;;1.15;;
74553;SDS011;63114;59.956;30.214;2022-09-24T13:43:18;8.65;;;1.40;;
74553;SDS011;63114;59.956;30.214;2022-09-24T13:45:57;4.13;;;1.58;;
74553;SDS011;63114;59.956;30.214;2022-09-24T13:48:28;1.83;;;1.10;;
74553;SDS011;63114;59.956;30.214;2022-09-24T13:50:54;1.75;;;1.05;;
74553;SDS011;63114;59.956;30.214;2022-09-24T13:53:52;3.78;;;1.23;;
74553;SDS011;63114;59.956;30.214;2022-09-24T13:56:22;3.60;;;1.30;;
74553;SDS011;63114;59.956;30.214;2022-09-24T13:58:48;3.50;;;1.42;;
74553;SDS011;63114;59.956;30.214;2022-09-24T14:01:19;3.70;;;1.27;;
74553;SDS011;63114;59.956;30.214;2022-09-24T14:04:13;2.53;;;1.10;;
74553;SDS011;63114;59.956;30.214;2022-09-24T14:06:51;4.18;;;1.30;;
74553;SDS011;63114;59.956;30.214;2022-09-24T14:09:31;4.93;;;1.15;;
74553;SDS011;63114;59.956;30.214;2022-09-24T14:12:15;3.75;;;1.13;;
74553;SDS011;63114;59.956;30.214;2022-09-24T14:14:45;2.00;;;1.03;;
74553;SDS011;63114;59.956;30.214;2022-09-24T14:17:17;3.58;;;1.17;;
74553;SDS011;63114;59.956;30.214;2022-09-24T14:19:43;4.30;;;1.33;;
74553;SDS011;63114;59.956;30.214;2022-09-24T14:22:10;4.18;;;1.00;;
74553;SDS011;63114;59.956;30.214;2022-09-24T14:24:48;5.18;;;1.25;;
74553;SDS011;63114;59.956;30.214;2022-09-24T14:27:20;3.38;;;1.40;;
74553;SDS011;63114;59.956;30.214;2022-09-24T14:29:49;6.68;;;1.52;;
74553;SDS011;63114;59.956;30.214;2022-09-24T14:32:30;5.55;;;1.45;;
74553;SDS011;63114;59.956;30.214;2022-09-24T14:34:58;2.88;;;1.20;;
74553;SDS011;63114;59.956;30.214;2022-09-24T14:37:27;5.53;;;1.15;;
74553;SDS011;63114;59.956;30.214;2022-09-24T14:39:59;5.70;;;1.40;;
74553;SDS011;63114;59.956;30.214;2022-09-24T14:44:55;5.55;;;1.20;;
74553;SDS011;63114;59.956;30.214;2022-09-24T14:47:23;3.33;;;0.90;;
74553;SDS011;63114;59.956;30.214;2022-09-24T14:49:53;5.00;;;1.20;;
74553;SDS011;63114;59.956;30.214;2022-09-24T14:52:32;3.58;;;1.40;;
74553;SDS011;63114;59.956;30.214;2022-09-24T14:57:36;3.17;;;1.05;;
74553;SDS011;63114;59.956;30.214;2022-09-24T15:02:50;3.35;;;1.20;;
74553;SDS011;63114;59.956;30.214;2022-09-24T15:05:27;4.50;;;1.40;;
74553;SDS011;63114;59.956;30.214;2022-09-24T15:10:33;2.60;;;1.38;;
74553;SDS011;63114;59.956;30.214;2022-09-24T15:12:59;3.78;;;1.13;;
74553;SDS011;63114;59.956;30.214;2022-09-24T15:15:29;6.00;;;1.40;;
74553;SDS011;63114;59.956;30.214;2022-09-24T15:17:57;3.70;;;1.52;;
74553;SDS011;63114;59.956;30.214;2022-09-24T15:20:23;6.43;;;1.30;;
74553;SDS011;63114;59.956;30.214;2022-09-24T15:22:50;4.82;;;1.20;;
74553;SDS011;63114;59.956;30.214;2022-09-24T15:25:16;4.78;;;1.38;;
74553;SDS011;63114;59.956;30.214;2022-09-24T15:27:42;4.75;;;1.40;;
74553;SDS011;63114;59.956;30.214;2022-09-24T15:30:10;4.47;;;1.42;;
74553;SDS011;63114;59.956;30.214;2022-09-24T15:32:44;2.95;;;1.42;;
74553;SDS011;63114;59.956;30.214;2022-09-24T15:35:12;3.95;;;1.30;;
74553;SDS011;63114;59.956;30.214;2022-09-24T15:37:39;2.83;;;1.10;;
74553;SDS011;63114;59.956;30.214;2022-09-24T15:40:06;2.75;;;1.33;;
74553;SDS011;63114;59.956;30.214;2022-09-24T15:42:36;5.50;;;1.90;;
74553;SDS011;63114;59.956;30.214;2022-09-24T15:45:01;7.03;;;1.40;;
74553;SDS011;63114;59.956;30.214;2022-09-24T15:47:28;2.70;;;1.33;;
74553;SDS011;63114;59.956;30.214;2022-09-24T15:49:54;4.75;;;1.40;;
74553;SDS011;63114;59.956;30.214;2022-09-24T15:52:28;4.85;;;1.58;;
74553;SDS011;63114;59.956;30.214;2022-09-24T15:54:57;6.60;;;1.48;;
74553;SDS011;63114;59.956;30.214;2022-09-24T15:57:25;5.88;;;2.65;;
74553;SDS011;63114;59.956;30.214;2022-09-24T15:59:51;10.60;;;5.97;;
74553;SDS011;63114;59.956;30.214;2022-09-24T16:02:22;10.35;;;6.47;;
74553;SDS011;63114;59.956;30.214;2022-09-24T16:04:49;12.13;;;7.57;;
74553;SDS011;63114;59.956;30.214;2022-09-24T16:07:15;13.02;;;8.75;;
74553;SDS011;63114;59.956;30.214;2022-09-24T16:09:42;9.63;;;5.90;;
74553;SDS011;63114;59.956;30.214;2022-09-24T16:12:15;6.80;;;5.93;;
74553;SDS011;63114;59.956;30.214;2022-09-24T16:14:41;11.38;;;7.43;;
74553;SDS011;63114;59.956;30.214;2022-09-24T16:17:07;7.22;;;5.65;;
74553;SDS011;63114;59.956;30.214;2022-09-24T16:19:33;6.80;;;5.00;;
74553;SDS011;63114;59.956;30.214;2022-09-24T16:21:59;7.88;;;3.83;;
74553;SDS011;63114;59.956;30.214;2022-09-24T16:24:25;7.30;;;2.55;;
74553;SDS011;63114;59.956;30.214;2022-09-24T16:26:51;3.67;;;2.05;;
74553;SDS011;63114;59.956;30.214;2022-09-24T16:29:17;5.80;;;2.88;;
74553;SDS011;63114;59.956;30.214;2022-09-24T16:31:43;7.63;;;2.13;;
74553;SDS011;63114;59.956;30.214;2022-09-24T16:34:10;8.43;;;2.42;;
74553;SDS011;63114;59.956;30.214;2022-09-24T16:36:36;4.22;;;2.40;;
74553;SDS011;63114;59.956;30.214;2022-09-24T16:39:02;5.50;;;2.50;;
74553;SDS011;63114;59.956;30.214;2022-09-24T16:41:28;5.07;;;3.03;;
74553;SDS011;63114;59.956;30.214;2022-09-24T16:43:59;6.40;;;2.63;;
74553;SDS011;63114;59.956;30.214;2022-09-24T16:46:27;4.32;;;2.45;;
74553;SDS011;63114;59.956;30.214;2022-09-24T16:48:53;4.68;;;2.78;;
74553;SDS011;63114;59.956;30.214;2022-09-24T16:51:19;4.60;;;2.17;;
74553;SDS011;63114;59.956;30.214;2022-09-24T16:56:36;5.22;;;2.40;;
74553;SDS011;63114;59.956;30.214;2022-09-24T16:59:02;3.63;;;1.95;;
74553;SDS011;63114;59.956;30.214;2022-09-24T17:01:29;3.92;;;1.92;;
74553;SDS011;63114;59.956;30.214;2022-09-24T17:04:01;4.07;;;2.45;;
74553;SDS011;63114;59.956;30.214;2022-09-24T17:06:27;4.90;;;2.25;;
74553;SDS011;63114;59.956;30.214;2022-09-24T17:08:55;3.58;;;2.20;;
74553;SDS011;63114;59.956;30.214;2022-09-24T17:11:39;5.18;;;2.63;;
74553;SDS011;63114;59.956;30.214;2022-09-24T17:14:07;5.45;;;2.65;;
74553;SDS011;63114;59.956;30.214;2022-09-24T17:16:36;6.97;;;2.38;;
74553;SDS011;63114;59.956;30.214;2022-09-24T17:19:03;4.07;;;2.22;;
74553;SDS011;63114;59.956;30.214;2022-09-24T17:21:29;5.25;;;2.25;;
74553;SDS011;63114;59.956;30.214;2022-09-24T17:23:55;5.82;;;2.55;;
74553;SDS011;63114;59.956;30.214;2022-09-24T17:26:21;5.72;;;2.40;;
74553;SDS011;63114;59.956;30.214;2022-09-24T17:28:52;4.85;;;2.40;;
74553;SDS011;63114;59.956;30.214;2022-09-24T17:31:19;4.07;;;2.28;;
74553;SDS011;63114;59.956;30.214;2022-09-24T17:36:29;7.75;;;2.35;;
74553;SDS011;63114;59.956;30.214;2022-09-24T17:38:57;5.20;;;2.03;;
74553;SDS011;63114;59.956;30.214;2022-09-24T17:41:24;3.97;;;1.92;;
74553;SDS011;63114;59.956;30.214;2022-09-24T17:43:50;4.00;;;2.58;;
74553;SDS011;63114;59.956;30.214;2022-09-24T17:46:17;4.30;;;2.40;;